Nearby METAR Reports


Data Updates Approximately Every Four Hours

METAR is the international standard code format for hourly surface weather observations which is analogous to the SA coding currently used in the US. The acronym roughly translates from French as Aviation Routine Weather Report. SPECI is merely the code name given to METAR formatted products which are issued on a special non-routine basis as dictated by changing meteorological conditions. The SPECI acronym roughly translates as Aviation Selected Special Weather Report.

KSLH - Cheboygan, Michigan, USA
Distance from station: W 9mi, 14km
Updated: 07/28/2017 2:33pm
Clear
Clear
 Wind from NE
Wind: NE 10 mph , 17 km/h
Temperature: 68°F , 20°C
Dew Point: 55°F , 13°C
Humidity: 64%
Barometer: 30.11 inHg , 1019.6 hPa
Clouds: Clear
Visibility: 10 miles , 16 km
2017/07/28 18:33 KSLH 281833Z AUTO 05009KT 10SM CLR 20/13 A3011 RMK AO2 T02040132
KMCD - Mackinac Island, Michigan, USA
Distance from station: NW 19mi, 31km
Updated: 07/28/2017 2:36pm
Clear
Clear
 Wind from E
Wind: E 12 mph , 19 km/h, Gust: 17 mph , 28 km/h
Temperature: 68°F , 20°C
Dew Point: 52°F , 11°C
Humidity: 56%
Barometer: 30.13 inHg , 1020.3 hPa
Clouds: Clear
Visibility: 10 miles , 16 km
2017/07/28 18:36 KMCD 281836Z AUTO 10010G15KT 10SM CLR 20/11 A3013 RMK AO2 T01970111
 
KPLN - Pellston, Michigan, USA
Distance from station: WSW 24mi, 38km
Updated: 07/28/2017 1:54pm
Clear
Clear
 Wind from ENE
Wind: ENE 13 mph , 20 km/h, Gust: 17 mph , 28 km/h
Temperature: 73°F , 23°C
Dew Point: 52°F , 11°C
Humidity: 47%
Barometer: 30.12 inHg , 1020 hPa
Clouds: Clear
Visibility: 10 miles , 16 km
2017/07/28 17:54 KPLN 281754Z AUTO 06011G15KT 10SM CLR 23/11 A3012 RMK AO2 SLP197 T02330106 10233 20144 51004
KPZQ - Rogers City, Michigan, USA
Distance from station: SE 31mi, 50km
Updated: 07/28/2017 2:34pm
Clear
Clear
 Wind from ENE
Wind: ENE 9 mph , 15 km/h
Temperature: 68°F , 20°C
Dew Point: 52°F , 11°C
Humidity: 56%
Barometer: 30.13 inHg , 1020.3 hPa
Clouds: Clear
Visibility: 10 miles , 16 km
2017/07/28 18:34 KPZQ 281834Z AUTO 06008KT 10SM CLR 20/11 A3013 RMK AO2 T01990112
 
KMGN - Harbor Springs, Michigan, USA
Distance from station: WSW 32mi, 52km
Updated: 07/28/2017 2:36pm
Clear
Clear
 Wind from ENE
Wind: ENE 14 mph , 22 km/h, Gust: 18 mph , 30 km/h
Temperature: 73°F , 23°C
Dew Point: 46°F , 8°C
Humidity: 38%
Barometer: 30.10 inHg , 1019.3 hPa
Clouds: Clear
Visibility: 10 miles , 16 km
2017/07/28 18:36 KMGN 281836Z AUTO 06012G16KT 10SM CLR 23/08 A3010 RMK AO2 T02310085
KDRM - Drummond Is, Michigan, USA
Distance from station: NE 36mi, 59km
Updated: 07/28/2017 2:34pm
Clear
Clear
 Wind from S
Wind: S 8 mph , 13 km/h
Temperature: 72°F , 22°C
Dew Point: 52°F , 11°C
Humidity: 50%
Barometer: 30.11 inHg , 1019.6 hPa
Clouds: Clear
Visibility: 10 miles , 16 km
2017/07/28 18:34 KDRM 281834Z AUTO 19007KT 10SM CLR 22/11 A3011 RMK AO2 T02160107
 
KCIU - Chippewa Intl, Michigan, USA
Distance from station: N 41mi, 66km
Updated: 07/28/2017 1:56pm
Clear
Clear
 Wind from E
Wind: E 10 mph , 17 km/h
Temperature: 72°F , 22°C
Dew Point: 48°F , 9°C
Humidity: 44%
Barometer: 30.12 inHg , 1020 hPa
Clouds: Clear
Visibility: 10 miles , 16 km
2017/07/28 17:56 KCIU 281756Z AUTO 10009KT 10SM CLR 22/09 A3012 RMK AO2 SLP221 6//// T02220089 10222 20167 58002 PNO $
KGLR - Gaylord, Michigan, USA
Distance from station: SSW 48mi, 77km
Updated: 07/28/2017 1:53pm
Mostly cloudy
Mostly cloudy
 Wind from ENE
Wind: ENE 12 mph , 19 km/h, Gust: 18 mph , 30 km/h
Temperature: 72°F , 22°C
Dew Point: 52°F , 11°C
Humidity: 50%
Barometer: 30.10 inHg , 1019.3 hPa
Clouds: Mostly cloudy
Visibility: 10 miles , 16 km
Cloud details: Mostly cloudy 4500 ft
2017/07/28 17:53 KGLR 281753Z AUTO 06010G16KT 10SM BKN045 22/11 A3010 RMK AO2 SLP190 T02220111 10228 20161 51001
 
KCVX - Charlevoix, Michigan, USA
Distance from station: WSW 52mi, 83km
Updated: 07/28/2017 2:34pm
Clear
Clear
 Wind from NE
Wind: NE 13 mph , 20 km/h, Gust: 17 mph , 28 km/h
Temperature: 75°F , 24°C
Dew Point: 54°F , 12°C
Humidity: 47%
Barometer: 30.12 inHg , 1020 hPa
Clouds: Clear
Visibility: 10 miles , 16 km
2017/07/28 18:34 KCVX 281834Z AUTO 05011G15KT 10SM CLR 24/12 A3012 RMK AO2 T02390124
KANJ - Sault Ste Marie, Michigan, USA
Distance from station: N 56mi, 89km
Updated: 07/28/2017 1:55pm
Mostly cloudy
Mostly cloudy
 Wind from SE
Wind: SE 8 mph , 13 km/h
Temperature: 73°F , 23°C
Dew Point: 52°F , 11°C
Humidity: 47%
Barometer: 30.10 inHg , 1019.3 hPa
Clouds: Mostly cloudy
Visibility: 10 miles , 16 km
Cloud details: Mostly cloudy 5500 ft
2017/07/28 17:55 KANJ 281755Z AUTO 14007KT 10SM BKN055 23/11 A3010 RMK AO2 SLP191 T02280111 10244 20167 58005
 
KAPN - Alpena, Michigan, USA
Distance from station: SE 56mi, 89km
Updated: 07/28/2017 1:54pm
Clear
Clear
 Wind from E
Wind: E 10 mph , 17 km/h
Temperature: 72°F , 22°C
Dew Point: 52°F , 11°C
Humidity: 50%
Barometer: 30.12 inHg , 1020 hPa
Clouds: Clear
Visibility: 10 miles , 16 km
2017/07/28 17:54 KAPN 281754Z AUTO 10009KT 10SM CLR 22/11 A3012 RMK AO2 SLP199 T02170106 10222 20183 51004
CYAM - Sault Ste Marie, Ontario, Canada
Distance from station: N 56mi, 90km
Updated: 07/28/2017 2:00pm
Partly cloudy
Partly cloudy
 Wind from S
Wind: S 7 mph , 11 km/h
Temperature: 73°F , 23°C
Dew Point: 50°F , 10°C
Humidity: 44%
Barometer: 30.11 inHg , 1019.6 hPa
Clouds: Partly cloudy
Visibility: 15 miles , 24 km
Cloud details: Few Clouds 6100 ft
Partly cloudy 7200 ft
Partly cloudy 24000 ft
2017/07/28 18:00 CYAM 281800Z 17006KT 110V220 15SM FEW061 SCT072 SCT240 23/10 A3011 RMK CU1ACC2CI1 SLP198 DENSITY ALT 1500FT
 
KSJX - Beaver Island, Michigan, USA
Distance from station: W 60mi, 96km
Updated: 07/28/2017 2:36pm
Clear
Clear
 Wind from ENE
Wind: ENE 12 mph , 19 km/h, Gust: 16 mph , 26 km/h
Temperature: 73°F , 23°C
Dew Point: 55°F , 13°C
Humidity: 53%
Barometer: 30.11 inHg , 1019.6 hPa
Clouds: Clear
Visibility: 10 miles , 16 km
2017/07/28 18:36 KSJX 281836Z AUTO 06010G14KT 10SM CLR 23/13 A3011 RMK AO2 T02300125
KACB - Bellaire, Michigan, USA
Distance from station: SW 63mi, 102km
Updated: 07/28/2017 2:35pm
Partly cloudy
Partly cloudy
 Wind from NNE
Wind: NNE 6 mph , 9 km/h
Temperature: 75°F , 24°C
Dew Point: 54°F , 12°C
Humidity: 47%
Barometer: 30.07 inHg , 1018.3 hPa
Clouds: Partly cloudy
Visibility: 10 miles , 16 km
Cloud details: Partly cloudy 7000 ft
Partly cloudy 8000 ft
2017/07/28 18:35 KACB 281835Z AUTO 03005KT 10SM SCT070 SCT080 24/12 A3007 RMK AO2 T02440117
 
CWNL - Great Duck Island, Ontario, Canada
Distance from station: E 66mi, 106km
Updated: 07/28/2017 1:00pm
NOT Current

 Wind from E
Wind: E 2 mph , 4 km/h
Temperature: 66°F , 19°C
Dew Point: 50°F , 10°C
Humidity: 56%
2017/07/28 17:00 CWNL 281700Z AUTO 08002KT 19/10 RMK AO1 SLP195 T01920097 50003
KERY - Newberry, Michigan, USA
Distance from station: NW 69mi, 112km
Updated: 07/28/2017 2:35pm
Mostly cloudy
Mostly cloudy
 Wind from S
Wind: S 12 mph , 19 km/h, Gust: 17 mph , 28 km/h
Temperature: 72°F , 22°C
Dew Point: 55°F , 13°C
Humidity: 57%
Barometer: 30.11 inHg , 1019.6 hPa
Clouds: Mostly cloudy
Visibility: 10 miles , 16 km
Cloud details: Partly cloudy 5000 ft
Partly cloudy 6000 ft
Mostly cloudy 7500 ft
2017/07/28 18:35 KERY 281835Z AUTO 17010G15KT 10SM SCT050 SCT060 BKN075 22/13 A3011 RMK AO2 T02220131
 
KGOV - Grayling Af, Michigan, USA
Distance from station: SSW 70mi, 113km
Updated: 07/28/2017 2:35pm
Mostly cloudy
Mostly cloudy
 Wind from NE
Wind: NE 13 mph , 20 km/h, Gust: 17 mph , 28 km/h
Temperature: 73°F , 23°C
Dew Point: 52°F , 11°C
Humidity: 47%
Barometer: 30.10 inHg , 1019.3 hPa
Clouds: Mostly cloudy
Visibility: 10 miles , 16 km
Cloud details: Partly cloudy 4600 ft
Mostly cloudy 5500 ft
2017/07/28 18:35 KGOV 281835Z AUTO 04011G15KT 10SM SCT046 BKN055 23/11 A3010 RMK AO2 T02290111